createdAt,value
2023-05-12T00:03:19.281Z,94983.31
2023-05-12T00:07:02.040Z,94991.41
2023-05-12T00:10:45.076Z,94987.34
2023-05-12T00:14:27.804Z,94980.47
2023-05-12T00:18:10.559Z,94985.78
2023-05-12T00:21:54.568Z,94985.38
2023-05-12T00:25:37.304Z,94982.16
2023-05-12T00:29:22.965Z,94981.78
2023-05-12T00:33:05.926Z,94989.44
2023-05-12T00:36:48.736Z,94975.94
2023-05-12T00:40:32.760Z,94977.38
2023-05-12T00:44:15.478Z,94979.41
2023-05-12T00:47:58.591Z,94971.72
2023-05-12T00:51:41.610Z,94966.06
2023-05-12T00:55:24.307Z,94973.38
2023-05-12T00:59:08.412Z,94969.34
2023-05-12T01:02:51.202Z,94971.56
2023-05-12T01:06:37.275Z,94968.94
2023-05-12T01:10:21.158Z,94968.53
2023-05-12T01:14:04.370Z,94967.72
2023-05-12T01:17:53.733Z,94970.13
2023-05-12T01:21:37.022Z,94968.91
2023-05-12T01:25:20.933Z,94960.81
2023-05-12T01:29:05.491Z,94966.88
2023-05-12T01:32:48.533Z,94964.25
2023-05-12T01:36:31.601Z,94958.41
2023-05-12T01:40:14.609Z,94956.00
2023-05-12T01:43:57.318Z,94963.28
2023-05-12T01:47:41.347Z,94964.88
2023-05-12T01:51:24.002Z,94967.69
2023-05-12T01:55:07.238Z,94964.47
2023-05-12T01:58:50.260Z,94961.84
2023-05-12T02:02:34.455Z,94955.16
2023-05-12T02:06:18.567Z,94957.19
2023-05-12T02:10:01.314Z,94963.66
2023-05-12T02:13:45.224Z,94955.38
2023-05-12T02:17:28.805Z,94956.00
2023-05-12T02:21:11.660Z,94957.59
2023-05-12T02:24:55.792Z,94953.53
2023-05-12T02:28:38.806Z,94951.94
2023-05-12T02:32:21.659Z,94948.69
2023-05-12T02:36:04.786Z,94958.03
2023-05-12T02:39:47.486Z,94947.50
2023-05-12T02:43:31.589Z,94950.94
2023-05-12T02:47:14.290Z,94958.81
2023-05-12T02:50:57.251Z,94960.66
2023-05-12T02:54:39.878Z,94958.03
2023-05-12T02:58:23.087Z,94965.31
2023-05-12T03:02:07.296Z,94961.69
2023-05-12T03:05:52.580Z,94960.88
2023-05-12T03:09:35.281Z,94959.88
2023-05-12T03:13:18.005Z,94961.66
2023-05-12T03:17:00.782Z,94967.50
2023-05-12T03:20:44.904Z,94962.84
2023-05-12T03:24:27.706Z,94970.53
2023-05-12T03:28:10.707Z,94969.72
2023-05-12T03:31:53.539Z,94972.75
2023-05-12T03:35:36.583Z,94966.91
2023-05-12T03:39:23.580Z,94967.31
2023-05-12T03:43:06.620Z,94961.06
2023-05-12T03:46:49.425Z,94965.28
2023-05-12T03:50:32.155Z,94964.91
2023-05-12T03:54:14.969Z,94965.72
2023-05-12T03:57:59.023Z,94958.25
2023-05-12T04:01:41.965Z,94958.25
2023-05-12T04:05:24.684Z,94965.13
2023-05-12T04:09:07.473Z,94960.88
2023-05-12T04:12:50.150Z,94959.28
2023-05-12T04:16:35.545Z,94961.69
2023-05-12T04:20:18.528Z,94968.75
2023-05-12T04:24:01.360Z,94975.44
2023-05-12T04:27:44.032Z,94971.38
2023-05-12T04:31:26.757Z,94982.50
2023-05-12T04:35:11.150Z,94973.81
2023-05-12T04:38:55.758Z,94974.63
2023-05-12T04:42:38.633Z,94974.78
2023-05-12T04:46:21.886Z,94977.22
2023-05-12T04:50:05.767Z,94979.84
2023-05-12T04:53:49.791Z,94983.88
2023-05-12T04:57:32.600Z,94979.63
2023-05-12T05:01:15.366Z,94994.38
2023-05-12T05:04:58.064Z,94993.00
2023-05-12T05:08:40.838Z,94991.81
2023-05-12T05:12:25.774Z,95012.59
2023-05-12T05:16:08.898Z,94992.75
2023-05-12T05:19:58.444Z,94998.63
2023-05-12T05:23:42.854Z,94997.19
2023-05-12T05:27:26.948Z,95004.22
2023-05-12T05:31:09.790Z,95006.03
2023-05-12T05:34:52.618Z,94999.97
2023-05-12T05:38:35.397Z,95008.63
2023-05-12T05:42:18.922Z,95005.16
2023-05-12T05:46:03.112Z,95007.19
2023-05-12T05:49:45.773Z,95014.06
2023-05-12T05:53:28.563Z,95008.78
2023-05-12T05:57:11.354Z,95012.03
2023-05-12T06:00:54.090Z,95009.16
2023-05-12T06:04:38.080Z,95013.19
2023-05-12T06:08:20.815Z,95004.66
2023-05-12T06:12:03.754Z,95007.84
2023-05-12T06:15:49.532Z,95008.34
2023-05-12T06:19:32.261Z,95012.69
2023-05-12T06:23:16.299Z,95017.72
2023-05-12T06:26:59.059Z,95023.75
2023-05-12T06:30:41.694Z,95017.41
2023-05-12T06:34:24.383Z,95022.84
2023-05-12T06:38:07.224Z,95022.78
2023-05-12T06:41:51.258Z,95025.56
2023-05-12T06:45:33.893Z,95034.88
2023-05-12T06:49:16.671Z,95032.44
2023-05-12T06:52:59.464Z,95028.00
2023-05-12T06:56:42.152Z,95032.81
2023-05-12T07:00:27.022Z,95034.44
2023-05-12T07:04:09.838Z,95039.28
2023-05-12T07:07:52.863Z,95028.53
2023-05-12T07:11:38.566Z,95036.00
2023-05-12T07:15:21.598Z,95036.59
2023-05-12T07:19:08.772Z,95032.13
2023-05-12T07:22:52.528Z,95026.09
2023-05-12T07:26:35.261Z,95030.63
2023-05-12T07:30:18.287Z,95038.94
2023-05-12T07:34:01.007Z,95023.75
2023-05-12T07:37:45.102Z,95031.06
2023-05-12T07:41:27.842Z,95024.19
2023-05-12T07:45:11.020Z,95029.66
2023-05-12T07:48:53.924Z,95035.34
2023-05-12T07:52:36.610Z,95032.50
2023-05-12T07:56:21.687Z,95035.63
2023-05-12T08:00:05.069Z,95035.53
2023-05-12T08:03:51.211Z,95025.72
2023-05-12T08:07:34.308Z,95037.94
2023-05-12T08:11:17.003Z,95034.75
2023-05-12T08:15:01.248Z,95031.09
2023-05-12T08:18:44.279Z,95028.91
2023-05-12T08:22:27.003Z,95026.63
2023-05-12T08:26:09.748Z,95036.22
2023-05-12T08:29:52.521Z,95039.50
2023-05-12T08:33:36.905Z,95039.69
2023-05-12T08:37:19.628Z,95043.19
2023-05-12T08:41:12.946Z,95046.25
2023-05-12T08:44:55.989Z,95036.53
2023-05-12T08:48:41.608Z,95036.91
2023-05-12T08:52:24.702Z,95044.75
2023-05-12T08:59:55.704Z,95037.66
2023-05-12T09:03:39.902Z,95041.91
2023-05-12T09:07:24.404Z,95043.34
2023-05-12T09:11:07.193Z,95048.41
2023-05-12T09:15:03.220Z,95045.28
2023-05-12T09:18:50.462Z,95047.03
2023-05-12T09:22:35.075Z,95053.69
2023-05-12T09:26:17.767Z,95047.47
2023-05-12T09:30:00.486Z,95042.81
2023-05-12T09:33:43.821Z,95049.72
2023-05-12T09:37:33.029Z,95049.88
2023-05-12T09:41:23.993Z,95045.78
2023-05-12T09:45:09.745Z,95048.78
2023-05-12T09:48:53.187Z,95051.78
2023-05-12T09:52:39.505Z,95049.75
2023-05-12T09:56:22.837Z,95052.38
2023-05-12T10:00:16.601Z,95050.34
2023-05-12T10:04:07.937Z,95050.66
2023-05-12T10:07:55.737Z,95046.56
2023-05-12T10:11:38.589Z,95041.22
2023-05-12T10:15:22.455Z,95046.13
2023-05-12T10:19:05.405Z,95049.22
2023-05-12T10:22:49.151Z,95045.69
2023-05-12T10:26:34.887Z,95052.56
2023-05-12T10:30:17.720Z,95054.47
2023-05-12T10:34:01.839Z,95053.59
2023-05-12T10:37:44.784Z,95058.25
2023-05-12T10:41:31.086Z,95056.38
2023-05-12T10:45:21.491Z,95062.97
2023-05-12T10:49:10.137Z,95053.59
2023-05-12T10:52:56.451Z,95056.69
2023-05-12T10:56:45.138Z,95068.88
2023-05-12T11:00:30.093Z,95065.84
2023-05-12T11:04:14.802Z,95062.09
2023-05-12T11:07:58.808Z,95061.78
2023-05-12T11:11:41.783Z,95061.19
2023-05-12T11:15:24.815Z,95069.19
2023-05-12T11:19:09.028Z,95059.91
2023-05-12T11:22:51.914Z,95059.13
2023-05-12T11:26:35.124Z,95053.84
2023-05-12T11:30:18.051Z,95059.28
2023-05-12T11:34:11.926Z,95064.09
2023-05-12T11:37:59.084Z,95058.78
2023-05-12T11:41:41.863Z,95058.09
2023-05-12T11:45:27.033Z,95068.44
2023-05-12T11:49:12.656Z,95063.16
2023-05-12T11:52:57.771Z,95059.59
2023-05-12T11:56:40.428Z,95065.22
2023-05-12T12:00:28.816Z,95068.44
2023-05-12T12:04:11.557Z,95071.66
2023-05-12T12:08:07.689Z,95074.06
2023-05-12T12:11:50.508Z,95070.72
2023-05-12T12:15:33.412Z,95076.47
2023-05-12T12:19:16.204Z,95070.03
2023-05-12T12:22:59.030Z,95077.66
2023-05-12T12:26:43.165Z,95072.47
2023-05-12T12:30:26.021Z,95079.72
2023-05-12T12:34:08.731Z,95078.47
2023-05-12T12:37:52.331Z,95069.50
2023-05-12T12:41:35.182Z,95073.72
2023-05-12T12:45:20.494Z,95076.25
2023-05-12T12:49:03.549Z,95070.41
2023-05-12T12:52:46.340Z,95086.00
2023-05-12T12:56:29.868Z,95073.53
2023-05-12T13:00:13.805Z,95085.94
2023-05-12T13:04:00.247Z,95082.91
2023-05-12T13:07:43.078Z,95073.72
2023-05-12T13:11:26.213Z,95079.59
2023-05-12T13:15:10.446Z,95070.50
2023-05-12T13:18:53.132Z,95067.53
2023-05-12T13:22:37.439Z,95080.31
2023-05-12T13:26:20.146Z,95076.84
2023-05-12T13:30:04.478Z,95064.66
2023-05-12T13:33:47.592Z,95073.94
2023-05-12T13:37:30.420Z,95076.69
2023-05-12T13:41:14.490Z,95071.66
2023-05-12T13:44:57.594Z,95067.03
2023-05-12T13:48:40.217Z,95063.34
2023-05-12T13:52:23.010Z,95066.09
2023-05-12T13:56:06.082Z,95075.06
2023-05-12T13:59:50.488Z,95074.03
2023-05-12T14:03:33.180Z,95065.63
2023-05-12T14:07:16.180Z,95065.72
2023-05-12T14:11:01.710Z,95071.78
2023-05-12T14:14:49.643Z,95070.84
2023-05-12T14:18:33.742Z,95065.53
2023-05-12T14:22:28.267Z,95078.78
2023-05-12T14:26:10.953Z,95070.66
2023-05-12T14:29:53.853Z,95075.75
2023-05-12T14:33:37.900Z,95074.13
2023-05-12T14:37:20.542Z,95077.91
2023-05-12T14:41:03.342Z,95072.09
2023-05-12T14:44:46.436Z,95071.56
2023-05-12T14:48:29.423Z,95072.56
2023-05-12T14:52:17.086Z,95082.16
2023-05-12T14:55:59.897Z,95079.81
2023-05-12T14:59:43.290Z,95074.88
2023-05-12T15:03:26.723Z,95077.41
2023-05-12T15:07:09.694Z,95088.69
2023-05-12T15:10:53.879Z,95091.22
2023-05-12T15:14:36.650Z,95088.91
2023-05-12T15:18:19.441Z,95085.91
2023-05-12T15:22:02.203Z,95085.31
2023-05-12T15:25:45.127Z,95092.47
2023-05-12T15:29:29.324Z,95095.50
2023-05-12T15:33:12.182Z,95095.72
2023-05-12T15:36:54.942Z,95090.88
2023-05-12T15:40:38.289Z,95102.47
2023-05-12T15:44:20.966Z,95108.22
2023-05-12T15:48:07.362Z,95109.81
2023-05-12T15:51:52.068Z,95098.53
2023-05-12T15:55:34.864Z,95098.41
2023-05-12T15:59:18.319Z,95104.28
2023-05-12T16:03:01.996Z,95103.34
2023-05-12T16:06:46.299Z,95100.34
2023-05-12T16:10:28.945Z,95110.00
2023-05-12T16:14:11.640Z,95101.50
2023-05-12T16:17:54.430Z,95105.63
2023-05-12T16:21:37.141Z,95106.50
2023-05-12T16:25:21.535Z,95105.75
2023-05-12T16:29:04.624Z,95104.66
2023-05-12T16:32:47.808Z,95107.66
2023-05-12T16:36:32.097Z,95102.03
2023-05-12T16:40:15.432Z,95107.34
2023-05-12T16:44:00.712Z,95095.78
2023-05-12T16:47:43.608Z,95102.66
2023-05-12T16:51:30.492Z,95105.31
2023-05-12T16:55:13.271Z,95105.31
2023-05-12T16:58:56.244Z,95108.97
2023-05-12T17:02:40.817Z,95117.34
2023-05-12T17:06:23.578Z,95108.78
2023-05-12T17:10:06.910Z,95112.50
2023-05-12T17:13:49.824Z,95111.78
2023-05-12T17:17:32.492Z,95112.59
2023-05-12T17:21:16.637Z,95113.84
2023-05-12T17:24:59.445Z,95124.47
2023-05-12T17:28:42.316Z,95118.75
2023-05-12T17:32:24.972Z,95124.81
2023-05-12T17:36:12.790Z,95119.63
2023-05-12T17:39:57.162Z,95121.31
2023-05-12T17:43:39.925Z,95122.91
2023-05-12T17:47:24.412Z,95118.22
2023-05-12T17:51:07.690Z,95125.69
2023-05-12T17:54:50.610Z,95132.00
2023-05-12T17:58:34.754Z,95139.03
2023-05-12T18:02:17.744Z,95140.22
2023-05-12T18:06:00.699Z,95142.25
2023-05-12T18:09:43.498Z,95143.13
2023-05-12T18:13:26.201Z,95148.41
2023-05-12T18:17:10.254Z,95159.81
2023-05-12T18:20:53.046Z,95157.03
2023-05-12T18:24:35.830Z,95159.50
2023-05-12T18:28:18.490Z,95153.47
2023-05-12T18:32:01.175Z,95156.91
2023-05-12T18:35:45.244Z,95160.50
2023-05-12T18:39:27.962Z,95153.81
2023-05-12T18:43:10.737Z,95156.81
2023-05-12T18:46:53.566Z,95156.59
2023-05-12T18:50:36.440Z,95157.78
2023-05-12T18:54:20.903Z,95166.28
2023-05-12T18:58:03.805Z,95160.56
2023-05-12T19:01:48.964Z,95164.38
2023-05-12T19:05:32.071Z,95175.09
2023-05-12T19:09:17.559Z,95169.53
2023-05-12T19:13:01.837Z,95166.66
2023-05-12T19:16:46.528Z,95167.25
2023-05-12T19:20:29.440Z,95168.84
2023-05-12T19:24:12.503Z,95164.53
2023-05-12T19:27:55.276Z,95171.06
2023-05-12T19:31:39.420Z,95178.16
2023-05-12T19:35:22.916Z,95176.56
2023-05-12T19:39:05.912Z,95175.16
2023-05-12T19:42:48.573Z,95172.31
2023-05-12T19:46:33.267Z,95180.22
2023-05-12T19:50:18.707Z,95178.75
2023-05-12T19:54:01.959Z,95185.50
2023-05-12T19:57:44.715Z,95180.66
2023-05-12T20:01:27.758Z,95187.53
2023-05-12T20:05:11.073Z,95188.84
2023-05-12T20:08:55.183Z,95187.97
2023-05-12T20:12:37.960Z,95185.38
2023-05-12T20:16:20.624Z,95192.38
2023-05-12T20:20:04.216Z,95193.22
2023-05-12T20:23:46.915Z,95187.00
2023-05-12T20:27:31.208Z,95181.56
2023-05-12T20:31:14.029Z,95184.09
2023-05-12T20:34:57.200Z,95188.19
2023-05-12T20:38:39.865Z,95192.28
2023-05-12T20:42:22.665Z,95193.88
2023-05-12T20:46:07.232Z,95188.78
2023-05-12T20:49:52.880Z,95189.38
2023-05-12T20:53:36.548Z,95188.19
2023-05-12T20:57:19.285Z,95190.88
2023-05-12T21:01:02.045Z,95187.88
2023-05-12T21:04:46.260Z,95191.53
2023-05-12T21:08:28.911Z,95193.94
2023-05-12T21:12:11.640Z,95195.16
2023-05-12T21:15:57.765Z,95195.38
2023-05-12T21:19:41.859Z,95194.16
2023-05-12T21:23:27.279Z,95202.09
2023-05-12T21:27:10.179Z,95198.63
2023-05-12T21:30:52.935Z,95195.56
2023-05-12T21:34:36.135Z,95193.50
2023-05-12T21:38:20.935Z,95198.78
2023-05-12T21:42:05.625Z,95204.44
2023-05-12T21:45:48.393Z,95198.13
2023-05-12T21:49:31.147Z,95196.31
2023-05-12T21:53:14.946Z,95200.78
2023-05-12T21:56:58.101Z,95198.72
2023-05-12T22:00:42.177Z,95208.84
2023-05-12T22:04:24.901Z,95199.53
2023-05-12T22:08:07.596Z,95199.09
2023-05-12T22:11:50.521Z,95207.22
2023-05-12T22:15:34.102Z,95204.38
2023-05-12T22:19:18.250Z,95208.47
2023-05-12T22:23:01.076Z,95208.47
2023-05-12T22:26:43.803Z,95206.91
2023-05-12T22:30:26.612Z,95199.63
2023-05-12T22:34:09.416Z,95200.03
2023-05-12T22:37:53.689Z,95196.41
2023-05-12T22:41:36.509Z,95189.78
2023-05-12T22:45:19.247Z,95194.88
2023-05-12T22:49:02.073Z,95188.84
2023-05-12T22:52:45.019Z,95199.81
2023-05-12T22:56:29.113Z,95187.66
2023-05-12T23:00:12.686Z,95192.13
2023-05-12T23:03:55.356Z,95191.31
2023-05-12T23:07:38.111Z,95188.88
2023-05-12T23:11:21.134Z,95175.94
2023-05-12T23:15:05.441Z,95175.94
2023-05-12T23:18:48.295Z,95176.16
2023-05-12T23:22:31.168Z,95179.59
2023-05-12T23:26:13.896Z,95172.72
2023-05-12T23:29:56.752Z,95184.84
2023-05-12T23:33:41.163Z,95183.03
2023-05-12T23:37:24.537Z,95178.41
2023-05-12T23:41:07.325Z,95170.72
2023-05-12T23:44:49.998Z,95176.78
2023-05-12T23:48:32.840Z,95174.75
2023-05-12T23:52:16.922Z,95167.47
2023-05-12T23:55:59.565Z,95164.03
2023-05-12T23:59:42.267Z,95163.03
